createdAt,value
2018-11-13T00:00:03.113Z,6.20
2018-11-13T00:02:31.520Z,6.10
2018-11-13T00:04:59.915Z,6.10
2018-11-13T00:07:28.333Z,6.00
2018-11-13T00:09:56.719Z,5.90
2018-11-13T00:12:25.268Z,5.90
2018-11-13T00:17:21.752Z,5.90
2018-11-13T00:24:46.301Z,6.20
2018-11-13T00:27:14.720Z,6.30
2018-11-13T00:29:43.088Z,6.30
2018-11-13T00:32:11.504Z,6.20
2018-11-13T00:34:39.880Z,6.20
2018-11-13T00:37:08.306Z,6.30
2018-11-13T00:39:36.689Z,6.20
2018-11-13T00:42:05.447Z,6.00
2018-11-13T00:44:33.754Z,5.90
2018-11-13T00:47:02.167Z,6.00
2018-11-13T00:49:30.559Z,6.00
2018-11-13T00:51:58.981Z,6.10
2018-11-13T00:54:27.391Z,6.10
2018-11-13T00:56:56.066Z,6.10
2018-11-13T00:59:24.457Z,6.10
2018-11-13T01:04:20.984Z,6.10
2018-11-13T01:06:49.391Z,6.10
2018-11-13T01:09:17.759Z,6.20
2018-11-13T01:11:46.238Z,6.20
2018-11-13T01:14:14.657Z,6.30
2018-11-13T01:16:43.056Z,6.20
2018-11-13T01:19:11.617Z,6.10
2018-11-13T01:21:40.032Z,6.10
2018-11-13T01:24:08.422Z,6.20
2018-11-13T01:26:36.828Z,6.20
2018-11-13T01:29:05.591Z,6.30
2018-11-13T01:31:33.967Z,6.20
2018-11-13T01:36:30.475Z,6.30
2018-11-13T01:41:27.071Z,6.20
2018-11-13T01:43:55.576Z,6.20
2018-11-13T01:46:23.995Z,6.10
2018-11-13T01:51:20.505Z,6.10
2018-11-13T01:53:48.909Z,6.00
2018-11-13T01:56:17.310Z,6.00
2018-11-13T01:58:45.721Z,6.00
2018-11-13T02:03:42.263Z,6.10
2018-11-13T02:06:10.712Z,6.10
2018-11-13T02:08:39.131Z,6.00
2018-11-13T02:11:07.915Z,6.00
2018-11-13T02:13:36.364Z,5.90
2018-11-13T02:16:04.985Z,5.90
2018-11-13T02:18:33.401Z,5.80
2018-11-13T02:21:01.838Z,5.80
2018-11-13T02:23:30.284Z,5.80
2018-11-13T02:28:26.810Z,5.80
2018-11-13T02:30:55.207Z,5.80
2018-11-13T02:33:23.748Z,5.80
2018-11-13T02:35:52.175Z,5.80
2018-11-13T02:38:20.568Z,5.70
2018-11-13T02:40:49.000Z,5.70
2018-11-13T02:43:17.407Z,5.70
2018-11-13T02:45:45.844Z,5.70
2018-11-13T02:48:14.240Z,5.80
2018-11-13T02:50:42.684Z,5.70
2018-11-13T02:53:11.104Z,5.70
2018-11-13T02:55:39.551Z,5.70
2018-11-13T03:00:36.104Z,5.30
2018-11-13T03:08:00.784Z,5.30
2018-11-13T03:10:29.243Z,5.30
2018-11-13T03:12:57.682Z,5.30
2018-11-13T03:15:26.111Z,5.30
2018-11-13T03:17:54.507Z,5.40
2018-11-13T03:20:22.951Z,5.50
2018-11-13T03:22:51.370Z,5.50
2018-11-13T03:25:20.951Z,5.50
2018-11-13T03:27:49.353Z,5.50
2018-11-13T03:32:51.048Z,5.50
2018-11-13T03:35:19.480Z,5.50
2018-11-13T03:37:47.920Z,5.40
2018-11-13T03:40:16.590Z,5.40
2018-11-13T03:42:45.873Z,5.40
2018-11-13T03:45:14.769Z,5.40
2018-11-13T03:47:43.452Z,5.40
2018-11-13T03:52:45.632Z,5.50
2018-11-13T03:55:14.420Z,5.40
2018-11-13T03:57:43.626Z,5.40
2018-11-13T04:00:13.839Z,5.40
2018-11-13T04:02:42.404Z,5.40
2018-11-13T04:05:13.155Z,5.40
2018-11-13T04:07:42.835Z,5.40
2018-11-13T04:10:12.856Z,5.40
2018-11-13T04:12:41.748Z,5.40
2018-11-13T04:15:11.940Z,5.30
2018-11-13T04:20:10.664Z,5.30
2018-11-13T04:22:39.076Z,5.20
2018-11-13T04:25:07.808Z,5.20
2018-11-13T04:27:36.395Z,5.20
2018-11-13T04:30:05.464Z,5.30
2018-11-13T04:32:33.869Z,5.30
2018-11-13T04:35:02.300Z,5.30
2018-11-13T04:37:30.725Z,5.30
2018-11-13T04:39:59.148Z,5.40
2018-11-13T04:42:27.892Z,5.40
2018-11-13T04:44:56.299Z,5.50
2018-11-13T04:47:24.704Z,5.40
2018-11-13T04:49:53.085Z,5.40
2018-11-13T04:52:21.692Z,5.30
2018-11-13T04:54:50.083Z,5.40
2018-11-13T04:57:18.500Z,5.40
2018-11-13T04:59:46.883Z,5.30
2018-11-13T05:04:43.393Z,5.30
2018-11-13T05:14:36.068Z,5.30
2018-11-13T05:22:00.725Z,5.40
2018-11-13T05:24:29.172Z,5.50
2018-11-13T05:26:57.583Z,5.30
2018-11-13T05:29:25.984Z,5.30
2018-11-13T05:31:54.409Z,5.30
2018-11-13T05:34:22.793Z,5.20
2018-11-13T05:39:19.300Z,5.10
2018-11-13T05:41:47.732Z,5.00
2018-11-13T05:44:16.160Z,5.10
2018-11-13T05:46:44.576Z,5.10
2018-11-13T05:49:12.987Z,5.10
2018-11-13T05:51:41.648Z,5.00
2018-11-13T05:54:10.028Z,5.00
2018-11-13T05:56:38.423Z,5.00
2018-11-13T06:01:34.943Z,4.90
2018-11-13T06:13:55.865Z,5.00
2018-11-13T06:18:52.373Z,5.00
2018-11-13T06:21:20.759Z,5.10
2018-11-13T06:23:49.166Z,5.00
2018-11-13T06:26:17.575Z,5.00
2018-11-13T06:28:45.980Z,5.00
2018-11-13T06:31:14.374Z,5.00
2018-11-13T06:36:10.907Z,5.00
2018-11-13T06:38:39.346Z,5.00
2018-11-13T06:41:07.712Z,5.00
2018-11-13T06:43:36.119Z,5.00
2018-11-13T06:46:04.978Z,5.10
2018-11-13T06:51:01.530Z,5.20
2018-11-13T06:53:40.620Z,5.30
2018-11-13T06:56:09.118Z,5.30
2018-11-13T06:58:37.521Z,5.40
2018-11-13T07:01:05.980Z,5.50
2018-11-13T07:03:34.478Z,5.60
2018-11-13T07:06:02.861Z,5.60
2018-11-13T07:10:59.369Z,5.80
2018-11-13T07:13:27.792Z,5.80
2018-11-13T07:15:56.556Z,5.90
2018-11-13T07:18:25.174Z,6.00
2018-11-13T07:25:49.780Z,6.20
2018-11-13T07:28:18.188Z,6.20
2018-11-13T07:30:46.675Z,6.40
2018-11-13T07:33:15.084Z,6.50
2018-11-13T07:35:43.480Z,6.80
2018-11-13T07:38:11.908Z,7.00
2018-11-13T07:40:40.320Z,7.20
2018-11-13T07:43:08.720Z,7.40
2018-11-13T07:48:05.843Z,7.40
2018-11-13T07:50:34.244Z,7.50
2018-11-13T07:53:02.662Z,7.70
2018-11-13T07:55:31.207Z,7.90
2018-11-13T07:57:59.590Z,8.00
2018-11-13T08:00:28.004Z,8.10
2018-11-13T08:02:56.727Z,8.20
2018-11-13T08:05:25.142Z,8.40
2018-11-13T08:10:21.663Z,8.40
2018-11-13T08:12:50.199Z,8.50
2018-11-13T08:20:15.995Z,9.40
2018-11-13T08:22:44.649Z,9.60
2018-11-13T08:27:41.789Z,10.20
2018-11-13T08:30:12.988Z,10.40
2018-11-13T08:32:41.467Z,10.60
2018-11-13T08:35:10.044Z,10.90
2018-11-13T08:42:35.761Z,11.80
2018-11-13T08:45:04.328Z,12.00
2018-11-13T08:50:00.943Z,12.50
2018-11-13T08:52:29.361Z,12.60
2018-11-13T08:54:57.780Z,12.80
2018-11-13T08:57:26.185Z,13.20
2018-11-13T08:59:54.629Z,13.60
2018-11-13T09:04:51.191Z,13.80
2018-11-13T09:07:19.663Z,14.10
2018-11-13T09:09:48.095Z,14.60
2018-11-13T09:12:16.608Z,15.10
2018-11-13T09:14:45.032Z,15.40
2018-11-13T09:17:13.440Z,15.80
2018-11-13T09:19:41.949Z,15.90
2018-11-13T09:22:10.605Z,15.60
2018-11-13T09:24:38.983Z,15.40
2018-11-13T09:29:35.723Z,15.20
2018-11-13T09:32:04.228Z,15.10
2018-11-13T09:34:32.622Z,15.00
2018-11-13T09:37:01.080Z,15.10
2018-11-13T09:39:29.481Z,15.20
2018-11-13T09:41:57.908Z,15.30
2018-11-13T09:44:26.320Z,15.50
2018-11-13T09:46:54.730Z,15.70
2018-11-13T09:49:23.096Z,16.00
2018-11-13T09:51:51.496Z,16.30
2018-11-13T09:54:19.908Z,17.00
2018-11-13T09:56:48.332Z,17.30
2018-11-13T09:59:16.712Z,17.40
2018-11-13T10:01:45.596Z,17.30
2018-11-13T10:04:14.247Z,17.20
2018-11-13T10:09:11.920Z,17.50
2018-11-13T10:11:41.504Z,17.60
2018-11-13T10:14:10.416Z,17.30
2018-11-13T10:16:39.579Z,16.70
2018-11-13T10:19:09.084Z,16.30
2018-11-13T10:21:38.075Z,16.00
2018-11-13T10:29:03.696Z,15.90
2018-11-13T10:31:32.163Z,15.90
2018-11-13T10:34:00.649Z,16.00
2018-11-13T10:36:29.094Z,15.90
2018-11-13T10:38:57.811Z,15.80
2018-11-13T10:41:26.251Z,15.60
2018-11-13T10:43:54.679Z,15.30
2018-11-13T10:46:23.106Z,15.10
2018-11-13T10:48:51.537Z,14.80
2018-11-13T10:51:19.981Z,14.60
2018-11-13T10:53:48.431Z,14.50
2018-11-13T10:56:16.916Z,14.20
2018-11-13T10:58:45.321Z,14.10
2018-11-13T11:01:19.160Z,13.90
2018-11-13T11:04:51.618Z,13.90
2018-11-13T11:07:20.067Z,13.80
2018-11-13T11:09:48.475Z,13.70
2018-11-13T11:12:17.399Z,13.60
2018-11-13T11:17:13.920Z,13.50
2018-11-13T11:22:10.428Z,13.50
2018-11-13T11:24:38.832Z,13.50
2018-11-13T11:29:35.372Z,13.30
2018-11-13T11:32:03.815Z,13.20
2018-11-13T11:34:32.212Z,13.00
2018-11-13T11:37:00.651Z,13.00
2018-11-13T11:41:57.150Z,12.60
2018-11-13T11:44:25.640Z,12.60
2018-11-13T11:46:53.975Z,12.50
2018-11-13T11:49:22.380Z,12.50
2018-11-13T11:51:50.786Z,12.50
2018-11-13T11:54:19.212Z,12.40
2018-11-13T11:59:15.919Z,12.50
2018-11-13T12:01:44.324Z,12.40
2018-11-13T12:04:12.752Z,12.30
2018-11-13T12:06:41.189Z,12.40
2018-11-13T12:09:10.428Z,12.30
2018-11-13T12:11:40.115Z,12.10
2018-11-13T12:19:05.637Z,12.10
2018-11-13T12:21:33.944Z,12.20
2018-11-13T12:24:03.112Z,12.20
2018-11-13T12:26:31.498Z,12.20
2018-11-13T12:28:59.939Z,12.30
2018-11-13T12:31:28.339Z,12.30
2018-11-13T12:33:56.756Z,12.30
2018-11-13T12:36:25.170Z,12.40
2018-11-13T12:38:53.580Z,12.50
2018-11-13T12:41:21.974Z,12.60
2018-11-13T12:43:50.409Z,12.70
2018-11-13T12:46:18.823Z,12.70
2018-11-13T12:48:47.271Z,12.70
2018-11-13T12:51:21.014Z,12.70
2018-11-13T12:53:49.460Z,12.60
2018-11-13T12:56:18.010Z,12.50
2018-11-13T12:58:46.479Z,12.50
2018-11-13T13:01:14.871Z,12.40
2018-11-13T13:06:11.412Z,12.30
2018-11-13T13:08:39.858Z,12.20
2018-11-13T13:11:08.440Z,12.10
2018-11-13T13:16:05.729Z,12.00
2018-11-13T13:18:34.120Z,12.10
2018-11-13T13:21:02.522Z,12.10
2018-11-13T13:23:31.644Z,12.00
2018-11-13T13:28:28.292Z,11.90
2018-11-13T13:30:57.569Z,11.90
2018-11-13T13:33:26.032Z,11.90
2018-11-13T13:36:02.627Z,11.90
2018-11-13T13:38:32.774Z,11.90
2018-11-13T13:41:02.237Z,11.80
2018-11-13T13:45:59.422Z,11.70
2018-11-13T13:48:28.168Z,11.70
2018-11-13T13:50:56.684Z,11.60
2018-11-13T13:53:25.949Z,11.60
2018-11-13T13:55:54.491Z,11.70
2018-11-13T14:00:52.640Z,11.60
2018-11-13T14:05:49.120Z,11.60
2018-11-13T14:08:18.247Z,11.60
2018-11-13T14:13:15.058Z,11.60
2018-11-13T14:15:43.523Z,11.60
2018-11-13T14:23:08.633Z,11.50
2018-11-13T14:28:05.644Z,11.40
2018-11-13T14:30:35.308Z,11.40
2018-11-13T14:33:06.064Z,11.40
2018-11-13T14:35:34.599Z,11.40
2018-11-13T14:43:01.629Z,11.40
2018-11-13T14:47:58.908Z,11.40
2018-11-13T14:50:28.889Z,11.40
2018-11-13T14:52:57.484Z,11.40
2018-11-13T14:55:28.166Z,11.40
2018-11-13T14:57:57.345Z,11.40
2018-11-13T15:00:27.037Z,11.40
2018-11-13T15:02:56.041Z,11.40
2018-11-13T15:05:25.043Z,11.40
2018-11-13T15:07:57.832Z,11.30
2018-11-13T15:10:39.700Z,11.30
2018-11-13T15:13:08.662Z,11.30
2018-11-13T15:15:37.076Z,11.30
2018-11-13T15:18:06.060Z,11.30
2018-11-13T15:23:02.615Z,11.30
2018-11-13T15:25:31.030Z,11.30
2018-11-13T15:27:59.492Z,11.30
2018-11-13T15:37:58.943Z,11.20
2018-11-13T15:40:28.778Z,11.20
2018-11-13T15:42:57.201Z,11.20
2018-11-13T15:45:25.702Z,11.20
2018-11-13T15:47:55.336Z,11.20
2018-11-13T15:50:25.155Z,11.20
2018-11-13T15:55:22.475Z,11.10
2018-11-13T15:57:51.007Z,11.10
2018-11-13T16:00:23.759Z,11.10
2018-11-13T16:02:52.466Z,11.10
2018-11-13T16:05:24.058Z,11.10
2018-11-13T16:07:55.566Z,11.00
2018-11-13T16:10:24.140Z,11.00
2018-11-13T16:12:52.611Z,11.00
2018-11-13T16:15:21.915Z,11.00
2018-11-13T16:17:51.223Z,11.10
2018-11-13T16:20:20.004Z,11.00
2018-11-13T16:25:16.877Z,10.90
2018-11-13T16:27:45.319Z,10.90
2018-11-13T16:30:15.195Z,10.90
2018-11-13T16:32:44.717Z,10.90
2018-11-13T16:35:14.236Z,10.90
2018-11-13T16:37:43.729Z,10.90
2018-11-13T16:40:14.792Z,10.80
2018-11-13T16:42:43.191Z,10.80
2018-11-13T16:47:42.663Z,10.70
2018-11-13T16:50:15.663Z,10.80
2018-11-13T16:52:44.525Z,10.90
2018-11-13T16:55:18.268Z,10.80
2018-11-13T16:57:46.690Z,10.90
2018-11-13T17:02:43.245Z,10.80
2018-11-13T17:05:13.231Z,10.70
2018-11-13T17:07:41.950Z,10.70
2018-11-13T17:12:40.596Z,10.70
2018-11-13T17:15:11.148Z,10.60
2018-11-13T17:17:40.016Z,10.70
2018-11-13T17:20:09.476Z,10.70
2018-11-13T17:22:38.559Z,10.70
2018-11-13T17:27:36.990Z,10.70
2018-11-13T17:35:03.797Z,10.80
2018-11-13T17:37:32.201Z,10.70
2018-11-13T17:40:00.616Z,10.60
2018-11-13T17:42:29.008Z,10.50
2018-11-13T17:47:25.507Z,10.50
2018-11-13T17:49:53.955Z,10.60
2018-11-13T17:52:22.344Z,10.60
2018-11-13T17:57:18.844Z,10.50
2018-11-13T17:59:47.244Z,10.50
2018-11-13T18:02:15.678Z,10.40
2018-11-13T18:04:44.252Z,10.30
2018-11-13T18:07:12.708Z,10.20
2018-11-13T18:09:41.096Z,10.20
2018-11-13T18:12:09.519Z,10.20
2018-11-13T18:17:06.095Z,10.00
2018-11-13T18:19:34.514Z,9.90
2018-11-13T18:22:03.118Z,9.90
2018-11-13T18:24:31.392Z,9.80
2018-11-13T18:26:59.864Z,9.80
2018-11-13T18:29:28.219Z,9.80
2018-11-13T18:31:56.632Z,9.70
2018-11-13T18:34:25.032Z,9.60
2018-11-13T18:36:53.455Z,9.60
2018-11-13T18:39:21.864Z,9.60
2018-11-13T18:41:50.287Z,9.50
2018-11-13T18:46:46.887Z,9.40
2018-11-13T18:49:15.332Z,9.40
2018-11-13T18:51:43.783Z,9.30
2018-11-13T18:54:12.179Z,9.30
2018-11-13T18:56:40.596Z,9.20
2018-11-13T18:59:09.206Z,9.10
2018-11-13T19:01:37.528Z,9.10
2018-11-13T19:04:05.996Z,9.00
2018-11-13T19:06:34.403Z,9.00
2018-11-13T19:09:02.838Z,8.90
2018-11-13T19:13:59.399Z,8.80
2018-11-13T19:16:27.820Z,8.70
2018-11-13T19:18:56.196Z,8.70
2018-11-13T19:23:52.731Z,8.50
2018-11-13T19:26:21.128Z,8.40
2018-11-13T19:28:49.512Z,8.40
2018-11-13T19:31:17.920Z,8.50
2018-11-13T19:36:14.807Z,8.40
2018-11-13T19:38:43.034Z,8.30
2018-11-13T19:41:11.428Z,8.10
2018-11-13T19:43:39.827Z,8.00
2018-11-13T19:46:08.289Z,8.00
2018-11-13T19:48:36.680Z,8.10
2018-11-13T19:51:05.255Z,8.10
2018-11-13T19:53:33.689Z,8.10
2018-11-13T19:58:30.297Z,8.00
2018-11-13T20:05:54.963Z,7.80
2018-11-13T20:08:23.423Z,7.70
2018-11-13T20:10:51.927Z,7.60
2018-11-13T20:13:20.549Z,7.60
2018-11-13T20:18:17.159Z,7.60
2018-11-13T20:20:45.804Z,7.50
2018-11-13T20:23:14.235Z,7.40
2018-11-13T20:25:42.675Z,7.30
2018-11-13T20:28:11.064Z,7.30
2018-11-13T20:30:40.658Z,7.40
2018-11-13T20:33:09.436Z,7.30
2018-11-13T20:35:37.967Z,7.20
2018-11-13T20:38:06.912Z,7.20
2018-11-13T20:40:36.213Z,7.20
2018-11-13T20:48:02.454Z,7.00
2018-11-13T20:53:00.302Z,6.80
2018-11-13T20:55:28.707Z,6.70
2018-11-13T20:57:57.267Z,6.80
2018-11-13T21:00:29.220Z,6.80
2018-11-13T21:02:58.013Z,6.70
2018-11-13T21:05:26.428Z,6.60
2018-11-13T21:07:55.012Z,6.60
2018-11-13T21:10:27.540Z,6.50
2018-11-13T21:12:55.927Z,6.40
2018-11-13T21:15:24.363Z,6.40
2018-11-13T21:17:52.764Z,6.30
2018-11-13T21:20:21.360Z,6.30
2018-11-13T21:22:49.764Z,6.40
2018-11-13T21:27:49.706Z,6.30
2018-11-13T21:30:19.455Z,6.30
2018-11-13T21:32:48.543Z,6.20
2018-11-13T21:35:17.231Z,6.20
2018-11-13T21:37:47.127Z,6.20
2018-11-13T21:40:18.604Z,6.20
2018-11-13T21:42:47.839Z,6.20
2018-11-13T21:45:17.067Z,6.10
2018-11-13T21:47:45.506Z,6.20
2018-11-13T21:50:15.366Z,6.10
2018-11-13T21:52:43.807Z,6.10
2018-11-13T21:55:14.113Z,6.10
2018-11-13T21:57:42.537Z,6.10
2018-11-13T22:00:13.415Z,6.00
2018-11-13T22:02:43.871Z,6.00
2018-11-13T22:07:40.360Z,6.00
2018-11-13T22:10:09.836Z,5.90
2018-11-13T22:12:38.654Z,5.90
2018-11-13T22:15:09.289Z,5.90
2018-11-13T22:20:07.284Z,5.80
2018-11-13T22:22:35.808Z,5.70
2018-11-13T22:25:04.156Z,5.60
2018-11-13T22:27:32.610Z,5.60
2018-11-13T22:30:01.227Z,5.50
2018-11-13T22:32:29.444Z,5.40
2018-11-13T22:34:57.815Z,5.30
2018-11-13T22:37:26.196Z,5.40
2018-11-13T22:39:54.974Z,5.40
2018-11-13T22:42:23.004Z,5.40
2018-11-13T22:47:19.952Z,5.40
2018-11-13T22:49:48.353Z,5.40
2018-11-13T22:52:16.748Z,5.30
2018-11-13T22:54:45.147Z,5.20
2018-11-13T22:59:41.710Z,4.90
2018-11-13T23:02:10.139Z,4.90
2018-11-13T23:07:07.105Z,4.90
2018-11-13T23:09:35.504Z,4.90
2018-11-13T23:12:03.971Z,4.80
2018-11-13T23:14:32.321Z,4.80
2018-11-13T23:17:00.720Z,4.80
2018-11-13T23:19:29.096Z,4.70
2018-11-13T23:21:57.528Z,4.60
2018-11-13T23:24:25.936Z,4.60
2018-11-13T23:26:54.338Z,4.50
2018-11-13T23:29:22.715Z,4.60
2018-11-13T23:31:51.098Z,4.50
2018-11-13T23:34:19.472Z,4.40
2018-11-13T23:36:48.132Z,4.50
2018-11-13T23:39:16.503Z,4.60
2018-11-13T23:41:44.883Z,4.60
2018-11-13T23:44:13.352Z,4.60
2018-11-13T23:46:41.728Z,4.50
2018-11-13T23:49:10.175Z,4.50
2018-11-13T23:51:38.555Z,4.40
2018-11-13T23:54:06.987Z,4.40
